Terminal Aerodrome Forecast
Issued by NWS

Home | Current Version | Previous Version | Text Only | Print | Product List | Glossary On
Versions: 1 2 3 4 5 6 7 8 9 10 11 12 13 14 15 16 17 18 19 20 21 22 23 24 25 26 27 28 29 30 31 32 33 34 35 36 37 38
000
FTAK31 PAFA 241533 AAA
TAFAOM
TAF AMD
PAOM 241533Z 2416/2512 02005KT P6SM FEW010 SCT025 SCT150
     FM242100 28012KT P6SM BKN050
     FM250200 29008KT P6SM SCT060 SCT200=

USA.gov is the U.S. government's official web portal to all federal, state and local government web resources and services.